createdAt,value
2022-08-26T00:01:46.818Z,21.10
2022-08-26T00:04:14.282Z,21.10
2022-08-26T00:06:42.584Z,21.10
2022-08-26T00:09:16.121Z,21.10
2022-08-26T00:11:45.357Z,21.10
2022-08-26T00:14:13.899Z,21.10
2022-08-26T00:16:47.658Z,21.10
2022-08-26T00:19:21.325Z,21.00
2022-08-26T00:21:49.618Z,21.00
2022-08-26T00:24:19.132Z,21.00
2022-08-26T00:26:46.758Z,20.90
2022-08-26T00:29:14.880Z,20.80
2022-08-26T00:31:42.806Z,20.80
2022-08-26T00:34:13.896Z,20.80
2022-08-26T00:36:41.084Z,20.80
2022-08-26T00:39:08.813Z,20.80
2022-08-26T00:41:38.822Z,20.80
2022-08-26T00:44:06.618Z,20.70
2022-08-26T00:46:46.994Z,20.70
2022-08-26T00:49:23.480Z,20.70
2022-08-26T00:51:57.900Z,20.70
2022-08-26T00:54:33.301Z,20.70
2022-08-26T00:57:05.751Z,20.60
2022-08-26T00:59:59.848Z,20.70
2022-08-26T01:02:27.248Z,20.60
2022-08-26T01:05:03.564Z,20.60
2022-08-26T01:07:32.787Z,20.50
2022-08-26T01:10:05.540Z,20.40
2022-08-26T01:12:47.612Z,20.40
2022-08-26T01:15:20.424Z,20.30
2022-08-26T01:17:47.534Z,20.30
2022-08-26T01:20:35.326Z,20.30
2022-08-26T01:23:06.674Z,20.30
2022-08-26T01:25:40.452Z,20.20
2022-08-26T01:28:26.992Z,20.10
2022-08-26T01:30:56.476Z,20.10
2022-08-26T01:33:29.875Z,20.00
2022-08-26T01:36:08.060Z,20.00
2022-08-26T01:38:44.414Z,20.00
2022-08-26T01:41:19.955Z,20.00
2022-08-26T01:43:56.507Z,20.00
2022-08-26T01:46:31.970Z,20.00
2022-08-26T01:49:04.486Z,19.90
2022-08-26T01:51:37.258Z,19.90
2022-08-26T01:54:07.252Z,19.90
2022-08-26T01:56:39.562Z,19.80
2022-08-26T01:59:10.913Z,19.80
2022-08-26T02:01:39.586Z,19.80
2022-08-26T02:04:27.129Z,19.80
2022-08-26T02:06:56.459Z,19.70
2022-08-26T02:09:24.658Z,19.60
2022-08-26T02:11:52.659Z,19.60
2022-08-26T02:14:34.548Z,19.60
2022-08-26T02:17:03.580Z,19.50
2022-08-26T02:19:39.226Z,19.50
2022-08-26T02:22:11.546Z,19.40
2022-08-26T02:24:51.044Z,19.40
2022-08-26T02:27:23.673Z,19.40
2022-08-26T02:30:10.417Z,19.40
2022-08-26T02:32:40.223Z,19.30
2022-08-26T02:35:10.844Z,19.30
2022-08-26T02:37:38.219Z,19.30
2022-08-26T02:40:10.893Z,19.30
2022-08-26T02:42:38.135Z,19.20
2022-08-26T02:45:06.772Z,19.20
2022-08-26T02:47:34.682Z,19.20
2022-08-26T02:50:01.867Z,19.10
2022-08-26T02:52:29.034Z,19.10
2022-08-26T02:54:55.991Z,19.10
2022-08-26T02:57:23.000Z,19.10
2022-08-26T02:59:51.367Z,19.00
2022-08-26T03:02:18.427Z,19.00
2022-08-26T03:04:57.700Z,19.00
2022-08-26T03:07:30.606Z,19.00
2022-08-26T03:09:58.297Z,18.90
2022-08-26T03:12:28.931Z,18.80
2022-08-26T03:14:57.611Z,18.80
2022-08-26T03:17:25.324Z,18.80
2022-08-26T03:19:57.307Z,18.80
2022-08-26T03:22:25.287Z,18.80
2022-08-26T03:24:55.149Z,18.80
2022-08-26T03:27:22.071Z,18.80
2022-08-26T03:30:07.484Z,18.80
2022-08-26T03:32:39.161Z,18.70
2022-08-26T03:35:08.661Z,18.80
2022-08-26T03:37:35.532Z,18.90
2022-08-26T03:40:02.985Z,19.00
2022-08-26T03:42:30.049Z,19.00
2022-08-26T03:44:57.165Z,19.10
2022-08-26T03:47:24.114Z,19.00
2022-08-26T03:49:51.064Z,19.10
2022-08-26T03:52:18.888Z,19.10
2022-08-26T03:54:45.884Z,19.10
2022-08-26T03:57:14.180Z,19.10
2022-08-26T03:59:43.784Z,19.10
2022-08-26T04:02:11.701Z,19.10
2022-08-26T04:04:39.769Z,19.00
2022-08-26T04:07:07.395Z,19.00
2022-08-26T04:09:35.355Z,19.00
2022-08-26T04:12:03.817Z,19.10
2022-08-26T04:14:32.152Z,19.10
2022-08-26T04:16:59.246Z,19.10
2022-08-26T04:19:26.636Z,19.10
2022-08-26T04:21:54.241Z,19.10
2022-08-26T04:24:24.006Z,19.00
2022-08-26T04:26:51.129Z,19.00
2022-08-26T04:29:21.333Z,19.00
2022-08-26T04:31:48.834Z,19.00
2022-08-26T04:34:17.122Z,18.90
2022-08-26T04:36:44.881Z,18.90
2022-08-26T04:39:16.470Z,19.00
2022-08-26T04:41:44.570Z,19.00
2022-08-26T04:44:11.954Z,19.00
2022-08-26T04:46:43.972Z,19.00
2022-08-26T04:49:11.996Z,19.00
2022-08-26T04:51:40.077Z,19.00
2022-08-26T04:54:08.052Z,19.00
2022-08-26T04:56:39.059Z,19.00
2022-08-26T04:59:08.216Z,19.00
2022-08-26T05:01:49.673Z,18.90
2022-08-26T05:04:18.942Z,19.00
2022-08-26T05:06:47.630Z,18.90
2022-08-26T05:09:15.604Z,19.00
2022-08-26T05:11:42.728Z,19.00
2022-08-26T05:14:09.734Z,19.00
2022-08-26T05:16:37.689Z,19.10
2022-08-26T05:19:08.611Z,19.10
2022-08-26T05:21:36.722Z,19.20
2022-08-26T05:24:04.662Z,19.20
2022-08-26T05:26:31.960Z,19.30
2022-08-26T05:28:59.072Z,19.30
2022-08-26T05:31:31.126Z,19.40
2022-08-26T05:33:59.087Z,19.40
2022-08-26T05:36:29.336Z,19.40
2022-08-26T05:38:57.862Z,19.50
2022-08-26T05:41:36.089Z,19.60
2022-08-26T05:44:05.915Z,19.60
2022-08-26T05:46:35.139Z,19.60
2022-08-26T05:49:03.968Z,19.70
2022-08-26T05:51:31.181Z,19.70
2022-08-26T05:53:58.798Z,19.70
2022-08-26T05:56:27.669Z,19.80
2022-08-26T05:58:59.735Z,19.80
2022-08-26T06:01:29.043Z,19.90
2022-08-26T06:03:59.713Z,19.90
2022-08-26T06:06:34.861Z,20.00
2022-08-26T06:09:05.187Z,20.00
2022-08-26T06:11:32.924Z,20.10
2022-08-26T06:14:03.860Z,20.20
2022-08-26T06:16:34.892Z,20.20
2022-08-26T06:19:03.360Z,20.20
2022-08-26T06:21:32.989Z,20.30
2022-08-26T06:24:21.901Z,20.40
2022-08-26T06:27:01.080Z,20.40
2022-08-26T06:29:29.616Z,20.50
2022-08-26T06:31:57.949Z,20.50
2022-08-26T06:34:29.917Z,20.50
2022-08-26T06:37:01.324Z,20.60
2022-08-26T06:39:30.707Z,20.60
2022-08-26T06:42:02.718Z,20.70
2022-08-26T06:44:34.287Z,20.70
2022-08-26T06:47:01.599Z,20.80
2022-08-26T06:49:28.577Z,20.80
2022-08-26T06:52:01.669Z,20.80
2022-08-26T06:54:31.510Z,20.80
2022-08-26T06:56:59.110Z,20.90
2022-08-26T06:59:26.092Z,20.90
2022-08-26T07:01:54.779Z,21.00
2022-08-26T07:04:23.063Z,21.00
2022-08-26T07:06:52.730Z,21.10
2022-08-26T07:09:22.920Z,21.20
2022-08-26T07:11:51.278Z,21.20
2022-08-26T07:14:19.330Z,21.30
2022-08-26T07:16:49.491Z,21.30
2022-08-26T07:19:17.570Z,21.30
2022-08-26T07:21:56.009Z,21.40
2022-08-26T07:24:23.442Z,21.40
2022-08-26T07:26:50.442Z,21.40
2022-08-26T07:29:18.578Z,21.40
2022-08-26T07:31:46.259Z,21.50
2022-08-26T07:34:13.932Z,21.50
2022-08-26T07:36:41.735Z,21.50
2022-08-26T07:39:09.016Z,21.60
2022-08-26T07:41:36.567Z,21.60
2022-08-26T07:44:04.357Z,21.70
2022-08-26T07:46:31.737Z,21.70
2022-08-26T07:48:59.094Z,21.70
2022-08-26T07:51:27.948Z,21.80
2022-08-26T07:53:55.358Z,21.80
2022-08-26T07:56:23.224Z,21.90
2022-08-26T07:58:52.841Z,21.90
2022-08-26T08:01:21.668Z,22.00
2022-08-26T08:03:51.483Z,22.00
2022-08-26T08:06:19.929Z,22.00
2022-08-26T08:08:47.712Z,22.00
2022-08-26T08:11:21.094Z,22.00
2022-08-26T08:13:48.952Z,22.10
2022-08-26T08:16:16.281Z,22.10
2022-08-26T08:18:43.215Z,22.20
2022-08-26T08:21:22.092Z,22.30
2022-08-26T08:23:55.330Z,22.30
2022-08-26T08:26:24.309Z,22.40
2022-08-26T08:28:54.265Z,22.40
2022-08-26T08:31:56.802Z,22.40
2022-08-26T08:34:19.199Z,22.40
2022-08-26T08:36:48.753Z,22.50
2022-08-26T08:39:17.458Z,22.50
2022-08-26T08:42:10.799Z,22.50
2022-08-26T08:44:41.881Z,22.60
2022-08-26T08:47:36.028Z,22.60
2022-08-26T08:50:14.269Z,22.70
2022-08-26T08:52:45.196Z,22.70
2022-08-26T08:55:18.038Z,22.70
2022-08-26T08:58:21.123Z,22.70
2022-08-26T09:01:02.509Z,22.80
2022-08-26T09:04:19.272Z,22.80
2022-08-26T09:06:49.612Z,22.90
2022-08-26T09:10:00.297Z,23.00
2022-08-26T09:12:33.605Z,23.20
2022-08-26T09:15:25.432Z,23.30
2022-08-26T09:18:25.517Z,23.40
2022-08-26T09:21:10.719Z,23.50
2022-08-26T09:23:41.778Z,23.60
2022-08-26T09:26:36.364Z,23.60
2022-08-26T09:29:14.313Z,23.70
2022-08-26T09:31:42.069Z,23.70
2022-08-26T09:34:25.029Z,23.80
2022-08-26T09:36:58.158Z,23.80
2022-08-26T09:39:27.990Z,23.80
2022-08-26T09:42:09.490Z,24.00
2022-08-26T09:44:57.873Z,24.00
2022-08-26T09:47:38.893Z,24.10
2022-08-26T09:50:33.559Z,24.10
2022-08-26T09:53:13.226Z,24.10
2022-08-26T09:55:43.198Z,24.00
2022-08-26T09:58:37.924Z,24.10
2022-08-26T10:01:08.915Z,24.10
2022-08-26T10:03:38.582Z,24.10
2022-08-26T10:06:18.064Z,24.20
2022-08-26T10:08:54.733Z,24.10
2022-08-26T10:11:48.943Z,24.10
2022-08-26T10:14:21.898Z,24.00
2022-08-26T10:16:54.494Z,24.00
2022-08-26T10:19:29.249Z,24.20
2022-08-26T10:22:33.869Z,24.30
2022-08-26T10:25:06.560Z,24.40
2022-08-26T10:27:33.977Z,24.40
2022-08-26T10:30:10.336Z,24.50
2022-08-26T10:32:48.830Z,24.60
2022-08-26T10:35:19.226Z,24.70
2022-08-26T10:37:57.927Z,24.70
2022-08-26T10:40:28.450Z,24.70
2022-08-26T10:43:08.538Z,24.70
2022-08-26T10:45:46.730Z,24.80
2022-08-26T10:48:21.612Z,24.70
2022-08-26T10:50:49.438Z,24.80
2022-08-26T10:53:25.124Z,24.80
2022-08-26T10:56:01.150Z,25.00
2022-08-26T10:58:42.689Z,25.10
2022-08-26T11:01:30.368Z,25.30
2022-08-26T11:04:06.329Z,25.40
2022-08-26T11:06:33.514Z,25.50
2022-08-26T11:09:07.290Z,25.40
2022-08-26T11:11:40.332Z,25.40
2022-08-26T11:14:28.924Z,25.20
2022-08-26T11:16:57.440Z,25.20
2022-08-26T11:19:50.548Z,25.30
2022-08-26T11:22:31.330Z,25.30
2022-08-26T11:24:58.836Z,25.40
2022-08-26T11:27:26.303Z,25.50
2022-08-26T11:30:04.866Z,25.50
2022-08-26T11:32:34.901Z,25.50
2022-08-26T11:35:05.198Z,25.60
2022-08-26T11:37:41.307Z,25.60
2022-08-26T11:40:15.977Z,25.60
2022-08-26T11:42:54.355Z,25.50
2022-08-26T11:45:34.265Z,25.60
2022-08-26T11:48:21.213Z,25.60
2022-08-26T11:50:59.059Z,25.40
2022-08-26T11:53:28.288Z,25.30
2022-08-26T11:55:59.105Z,25.10
2022-08-26T11:58:27.907Z,25.00
2022-08-26T12:00:58.623Z,25.00
2022-08-26T12:03:35.939Z,25.00
2022-08-26T12:06:03.447Z,25.00
2022-08-26T12:08:34.458Z,24.90
2022-08-26T12:11:11.408Z,24.90
2022-08-26T12:13:39.158Z,24.90
2022-08-26T12:16:06.601Z,25.00
2022-08-26T12:18:37.602Z,25.00
2022-08-26T12:21:19.539Z,25.00
2022-08-26T12:23:49.936Z,25.00
2022-08-26T12:26:31.407Z,25.10
2022-08-26T12:28:59.742Z,25.00
2022-08-26T12:31:36.422Z,25.10
2022-08-26T12:34:06.587Z,25.00
2022-08-26T12:36:53.731Z,25.00
2022-08-26T12:39:28.349Z,25.00
2022-08-26T12:41:57.906Z,24.90
2022-08-26T12:44:32.318Z,24.90
2022-08-26T12:47:06.107Z,25.00
2022-08-26T12:49:33.256Z,24.80
2022-08-26T12:52:00.871Z,24.80
2022-08-26T12:54:47.889Z,24.70
2022-08-26T12:57:14.920Z,24.70
2022-08-26T12:59:41.980Z,24.80
2022-08-26T13:02:09.083Z,24.70
2022-08-26T13:04:37.792Z,24.80
2022-08-26T13:07:21.910Z,24.80
2022-08-26T13:09:50.608Z,24.80
2022-08-26T13:12:24.892Z,24.90
2022-08-26T13:14:52.045Z,24.80
2022-08-26T13:17:19.088Z,24.90
2022-08-26T13:19:46.059Z,24.80
2022-08-26T13:22:13.725Z,24.70
2022-08-26T13:24:43.211Z,24.70
2022-08-26T13:27:12.983Z,24.70
2022-08-26T13:29:39.979Z,24.70
2022-08-26T13:32:10.275Z,24.80
2022-08-26T13:34:37.605Z,24.90
2022-08-26T13:37:05.760Z,25.00
2022-08-26T13:39:33.279Z,25.00
2022-08-26T13:42:00.406Z,24.90
2022-08-26T13:44:27.748Z,25.00
2022-08-26T13:46:54.842Z,25.00
2022-08-26T13:49:22.586Z,24.90
2022-08-26T13:51:49.677Z,24.90
2022-08-26T13:54:16.756Z,24.80
2022-08-26T13:56:43.898Z,24.80
2022-08-26T13:59:11.581Z,24.80
2022-08-26T14:01:40.047Z,24.70
2022-08-26T14:04:07.321Z,24.80
2022-08-26T14:06:34.404Z,24.90
2022-08-26T14:09:01.530Z,24.90
2022-08-26T14:11:29.572Z,24.90
2022-08-26T14:14:06.112Z,24.90
2022-08-26T14:16:36.005Z,24.90
2022-08-26T14:19:05.733Z,24.90
2022-08-26T14:21:37.593Z,24.90
2022-08-26T14:24:06.196Z,24.80
2022-08-26T14:26:33.323Z,24.70
2022-08-26T14:29:02.660Z,24.70
2022-08-26T14:31:31.809Z,24.80
2022-08-26T14:34:05.387Z,24.80
2022-08-26T14:36:33.120Z,24.90
2022-08-26T14:39:04.906Z,24.70
2022-08-26T14:41:33.079Z,24.70
2022-08-26T14:44:08.119Z,24.70
2022-08-26T14:46:45.384Z,24.60
2022-08-26T14:49:13.325Z,24.60
2022-08-26T14:51:41.005Z,24.50
2022-08-26T14:54:12.301Z,24.50
2022-08-26T14:56:58.541Z,24.40
2022-08-26T14:59:28.778Z,24.50
2022-08-26T15:01:56.729Z,24.50
2022-08-26T15:04:25.261Z,24.50
2022-08-26T15:06:53.509Z,24.50
2022-08-26T15:09:22.137Z,24.50
2022-08-26T15:11:50.343Z,24.40
2022-08-26T15:14:19.516Z,24.40
2022-08-26T15:16:53.093Z,24.40
2022-08-26T15:19:22.608Z,24.40
2022-08-26T15:21:50.380Z,24.40
2022-08-26T15:24:20.277Z,24.30
2022-08-26T15:26:47.972Z,24.20
2022-08-26T15:29:15.640Z,24.00
2022-08-26T15:31:43.224Z,24.00
2022-08-26T15:34:16.404Z,24.10
2022-08-26T15:36:45.812Z,24.10
2022-08-26T15:39:13.612Z,24.10
2022-08-26T15:41:41.070Z,24.00
2022-08-26T15:44:09.994Z,23.90
2022-08-26T15:46:37.718Z,23.80
2022-08-26T15:49:07.163Z,23.70
2022-08-26T15:51:45.619Z,23.70
2022-08-26T15:54:14.030Z,23.70
2022-08-26T15:56:41.077Z,23.80
2022-08-26T15:59:11.588Z,23.70
2022-08-26T16:01:39.678Z,23.70
2022-08-26T16:04:07.550Z,23.70
2022-08-26T16:06:37.722Z,23.70
2022-08-26T16:09:06.069Z,23.70
2022-08-26T16:11:34.398Z,23.60
2022-08-26T16:14:05.640Z,23.60
2022-08-26T16:16:32.964Z,23.60
2022-08-26T16:19:03.275Z,23.50
2022-08-26T16:21:34.228Z,23.50
2022-08-26T16:24:01.371Z,23.30
2022-08-26T16:26:32.475Z,23.30
2022-08-26T16:29:01.854Z,23.30
2022-08-26T16:31:29.161Z,23.30
2022-08-26T16:33:56.445Z,23.30
2022-08-26T16:36:23.441Z,23.30
2022-08-26T16:38:56.276Z,23.20
2022-08-26T16:41:26.304Z,23.20
2022-08-26T16:43:53.861Z,23.00
2022-08-26T16:46:23.662Z,22.90
2022-08-26T16:48:52.310Z,22.90
2022-08-26T16:51:22.953Z,22.90
2022-08-26T16:53:51.742Z,22.90
2022-08-26T16:56:21.808Z,22.90
2022-08-26T16:58:49.511Z,22.80
2022-08-26T17:01:18.394Z,22.70
2022-08-26T17:03:45.454Z,22.70
2022-08-26T17:06:12.748Z,22.70
2022-08-26T17:08:41.447Z,22.70
2022-08-26T17:11:09.563Z,22.60
2022-08-26T17:13:38.142Z,22.60
2022-08-26T17:16:08.113Z,22.60
2022-08-26T17:18:36.362Z,22.50
2022-08-26T17:21:06.249Z,22.50
2022-08-26T17:23:33.732Z,22.40
2022-08-26T17:26:01.025Z,22.40
2022-08-26T17:28:28.061Z,22.30
2022-08-26T17:30:59.466Z,22.30
2022-08-26T17:33:27.635Z,22.10
2022-08-26T17:35:55.141Z,22.00
2022-08-26T17:38:24.180Z,22.10
2022-08-26T17:40:51.568Z,22.10
2022-08-26T17:43:19.026Z,22.00
2022-08-26T17:45:46.020Z,22.00
2022-08-26T17:48:13.518Z,22.00
2022-08-26T17:50:42.872Z,22.00
2022-08-26T17:53:18.854Z,22.00
2022-08-26T17:55:47.471Z,22.00
2022-08-26T17:58:17.192Z,21.90
2022-08-26T18:00:50.207Z,22.00
2022-08-26T18:03:18.404Z,22.00
2022-08-26T18:05:51.172Z,21.90
2022-08-26T18:08:18.502Z,21.90
2022-08-26T18:10:45.904Z,21.90
2022-08-26T18:13:14.835Z,21.90
2022-08-26T18:15:45.204Z,21.90
2022-08-26T18:18:14.452Z,21.90
2022-08-26T18:20:43.758Z,21.80
2022-08-26T18:23:12.155Z,21.80
2022-08-26T18:25:43.900Z,21.70
2022-08-26T18:28:11.523Z,21.70
2022-08-26T18:30:41.174Z,21.70
2022-08-26T18:33:08.659Z,21.70
2022-08-26T18:35:44.076Z,21.60
2022-08-26T18:38:13.734Z,21.70
2022-08-26T18:40:44.354Z,21.70
2022-08-26T18:43:13.205Z,21.60
2022-08-26T18:45:40.211Z,21.50
2022-08-26T18:48:07.437Z,21.60
2022-08-26T18:50:39.729Z,21.50
2022-08-26T18:53:07.267Z,21.50
2022-08-26T18:55:34.319Z,21.50
2022-08-26T18:58:01.400Z,21.50
2022-08-26T19:00:28.431Z,21.40
2022-08-26T19:02:55.925Z,21.40
2022-08-26T19:05:25.921Z,21.40
2022-08-26T19:07:53.052Z,21.40
2022-08-26T19:10:20.621Z,21.40
2022-08-26T19:12:51.803Z,21.40
2022-08-26T19:15:19.874Z,21.40
2022-08-26T19:17:48.112Z,21.40
2022-08-26T19:20:15.328Z,21.20
2022-08-26T19:22:42.187Z,21.20
2022-08-26T19:25:10.008Z,21.30
2022-08-26T19:27:37.022Z,21.30
2022-08-26T19:30:08.202Z,21.20
2022-08-26T19:32:35.437Z,21.20
2022-08-26T19:35:02.393Z,21.20
2022-08-26T19:37:29.560Z,21.20
2022-08-26T19:39:56.769Z,21.20
2022-08-26T19:42:23.875Z,21.20
2022-08-26T19:45:15.689Z,21.10
2022-08-26T19:47:53.026Z,21.10
2022-08-26T19:50:21.594Z,21.10
2022-08-26T19:52:49.072Z,21.10
2022-08-26T19:55:18.752Z,21.10
2022-08-26T19:57:45.936Z,21.10
2022-08-26T20:00:14.956Z,21.10
2022-08-26T20:02:42.785Z,21.10
2022-08-26T20:05:12.712Z,21.00
2022-08-26T20:07:41.856Z,21.00
2022-08-26T20:10:12.904Z,21.00
2022-08-26T20:12:41.716Z,21.00
2022-08-26T20:15:11.915Z,20.90
2022-08-26T20:17:40.026Z,20.90
2022-08-26T20:20:33.436Z,20.80
2022-08-26T20:23:03.591Z,20.80
2022-08-26T20:25:32.492Z,20.70
2022-08-26T20:28:00.214Z,20.70
2022-08-26T20:30:27.405Z,20.70
2022-08-26T20:32:54.544Z,20.60
2022-08-26T20:35:21.702Z,20.60
2022-08-26T20:37:48.746Z,20.60
2022-08-26T20:40:15.947Z,20.60
2022-08-26T20:42:43.009Z,20.60
2022-08-26T20:45:10.668Z,20.60
2022-08-26T20:47:37.788Z,20.50
2022-08-26T20:50:05.148Z,20.50
2022-08-26T20:52:32.088Z,20.50
2022-08-26T20:54:59.139Z,20.40
2022-08-26T20:57:26.152Z,20.40
2022-08-26T20:59:53.266Z,20.30
2022-08-26T21:02:20.316Z,20.40
2022-08-26T21:04:47.321Z,20.30
2022-08-26T21:07:14.455Z,20.30
2022-08-26T21:09:41.503Z,20.30
2022-08-26T21:12:09.350Z,20.30
2022-08-26T21:14:36.271Z,20.30
2022-08-26T21:17:04.208Z,20.20
2022-08-26T21:19:31.280Z,20.20
2022-08-26T21:21:59.532Z,20.20
2022-08-26T21:24:26.558Z,20.20
2022-08-26T21:26:53.569Z,20.20
2022-08-26T21:29:21.992Z,20.20
2022-08-26T21:31:49.116Z,20.10
2022-08-26T21:34:20.195Z,20.00
2022-08-26T21:36:47.860Z,20.00
2022-08-26T21:39:15.588Z,20.00
2022-08-26T21:41:43.724Z,20.00
2022-08-26T21:44:12.604Z,20.00
2022-08-26T21:46:40.325Z,19.90
2022-08-26T21:49:12.412Z,20.00
2022-08-26T21:51:43.136Z,20.00
2022-08-26T21:54:11.586Z,20.00
2022-08-26T21:56:47.009Z,20.00
2022-08-26T21:59:16.818Z,19.90
2022-08-26T22:01:43.808Z,19.80
2022-08-26T22:04:11.018Z,19.80
2022-08-26T22:06:43.200Z,19.80
2022-08-26T22:09:11.746Z,19.70
2022-08-26T22:11:38.965Z,19.70
2022-08-26T22:14:06.835Z,19.70
2022-08-26T22:16:34.250Z,19.60
2022-08-26T22:19:01.384Z,19.50
2022-08-26T22:21:28.546Z,19.50
2022-08-26T22:23:56.163Z,19.40
2022-08-26T22:26:28.786Z,19.40
2022-08-26T22:28:58.979Z,19.30
2022-08-26T22:31:37.598Z,19.30
2022-08-26T22:34:08.622Z,19.10
2022-08-26T22:36:42.932Z,19.10
2022-08-26T22:39:12.359Z,19.20
2022-08-26T22:41:40.072Z,19.20
2022-08-26T22:44:07.491Z,19.20
2022-08-26T22:46:36.682Z,19.20
2022-08-26T22:49:04.813Z,19.20
2022-08-26T22:51:32.145Z,19.10
2022-08-26T22:53:59.341Z,19.10
2022-08-26T22:56:26.567Z,19.10
2022-08-26T22:58:53.456Z,19.10
2022-08-26T23:01:20.356Z,19.10
2022-08-26T23:03:47.445Z,19.10
2022-08-26T23:06:14.469Z,19.00
2022-08-26T23:08:42.020Z,19.00
2022-08-26T23:11:10.913Z,19.00
2022-08-26T23:13:38.941Z,19.00
2022-08-26T23:16:09.382Z,19.00
2022-08-26T23:18:36.814Z,19.00
2022-08-26T23:21:04.517Z,19.00
2022-08-26T23:23:31.805Z,19.00
2022-08-26T23:25:58.819Z,18.90
2022-08-26T23:28:26.478Z,18.90
2022-08-26T23:30:53.948Z,18.90
2022-08-26T23:33:21.439Z,18.90
2022-08-26T23:35:48.347Z,18.90
2022-08-26T23:38:16.739Z,18.90
2022-08-26T23:40:43.680Z,18.90
2022-08-26T23:43:16.306Z,18.90
2022-08-26T23:45:43.731Z,18.90
2022-08-26T23:48:10.952Z,18.80
2022-08-26T23:50:56.792Z,18.80
2022-08-26T23:53:23.839Z,18.80
2022-08-26T23:55:52.227Z,18.80
2022-08-26T23:58:21.189Z,18.70
